Futenma Marine Corps Air Station
ROTM : now visible

Airfield :











YOU CAN JOIN US ON...

 
LOGIN :

Register | Disclaimer

   EN    FR    IT 

 









Legend :    VFR   Marginal VFR   IFR   Intensive IFR   Very Intensive IFR
Visi :
Ceiling :
>= 8 km
>= 3000ft
5 to 8 km
1000 to 3000 ft
1500m to 5 km
500 to 1000 ft
800 to 1500m
200 to 500 ft
< 800m
< 200 ft
Symbols :   Thunderstorms  Fog  Heavy snow  Heavy precipitations  Wind > 20 kt






- Airport Elevation : 247 ft


ROTM - Futenma Marine Corps Air Station

CURRENT METAR :
  • 280356Z 36013KT 9999 BKN022 BKN050 28/26 A2972 RMK SLP050 T02830256

EXPIRED METARs :
  • 280256Z 34013KT 9999 BKN025 29/26 A2974 RMK SLP057 T02890256 57010
  • 280156Z 35013G19KT 9999 SCT025 BKN035 29/25 A2976 RMK SLP061 T02890250

TAF TAF ROTM
Valid from the 28 at 03:00 until the 29 at 03:00 UTC


2803/2903 35014KT 9999 SCT025 BKN045 QNH2971INS
TEMPO 2803/2809 36014G20KT 9000 SHRA BR BKN025
FM280900 02014G20KT 9999 VCSH SCT015 BKN035 QNH2970INS
TEMPO 2812/2818 02015G25KT 8000 SHRA BR BKN020
BECMG 2821/2823 02015G25KT 9999 VCSH SCT025 BKN045 QNH2972INS T31/2805Z T24/2818Z
RJJJ FIR / Asia



MET'MAP, your aeronautical weather chart ! - Copyright ORBIFLY December 2007 - Disclaimer

ORBIFLY MET'MAP TEAM :

Programming & Development : Alexandra Zaïnal
Concept & original design : Baudouin d'Aumeries
Assistance for programming : Marc-Olivier Méhu
Technical & hardware support : Manuel Goepfert

Contact : metmap@orbifly.com




SOURCES & CREDITS :

   NOAA       Earth
Advisory